createdAt,value
2017-04-24T03:00:28.384Z,62.81
2017-04-24T03:00:54.292Z,62.9
2017-04-24T03:01:47.253Z,62.71
2017-04-24T03:02:12.810Z,62.9
2017-04-24T03:02:38.394Z,62.71
2017-04-24T03:03:03.929Z,62.9
2017-04-24T03:03:29.534Z,62.81
2017-04-24T03:03:55.101Z,62.81
2017-04-24T03:04:20.664Z,62.9
2017-04-24T03:04:46.284Z,62.9
2017-04-24T03:05:11.834Z,62.99
2017-04-24T03:05:37.391Z,62.71
2017-04-24T03:06:02.959Z,62.9
2017-04-24T03:06:28.504Z,62.81
2017-04-24T03:06:54.089Z,63.09
2017-04-24T03:07:19.687Z,63.09
2017-04-24T03:07:45.263Z,63.09
2017-04-24T03:08:10.826Z,62.99
2017-04-24T03:08:36.393Z,62.9
2017-04-24T03:09:01.945Z,63.09
2017-04-24T03:09:27.495Z,63.09
2017-04-24T03:09:53.064Z,62.9
2017-04-24T03:10:19.281Z,62.81
2017-04-24T03:10:44.837Z,62.99
2017-04-24T03:11:10.393Z,62.9
2017-04-24T03:11:35.950Z,63.19
2017-04-24T03:12:01.489Z,62.99
2017-04-24T03:12:27.037Z,63.09
2017-04-24T03:12:52.580Z,63.19
2017-04-24T03:13:18.124Z,62.99
2017-04-24T03:13:43.664Z,62.71
2017-04-24T03:14:09.249Z,62.61
2017-04-24T03:14:34.793Z,62.61
2017-04-24T03:15:00.342Z,62.61
2017-04-24T03:15:25.901Z,62.9
2017-04-24T03:15:51.427Z,62.9
2017-04-24T03:16:17.058Z,62.61
2017-04-24T03:16:42.657Z,62.71
2017-04-24T03:17:08.230Z,62.99
2017-04-24T03:17:33.772Z,62.71
2017-04-24T03:17:59.363Z,62.9
2017-04-24T03:18:24.900Z,62.9
2017-04-24T03:18:50.443Z,63.09
2017-04-24T03:19:16.002Z,62.61
2017-04-24T03:19:41.554Z,62.61
2017-04-24T03:20:07.164Z,62.9
2017-04-24T03:20:32.722Z,62.81
2017-04-24T03:20:58.271Z,62.61
2017-04-24T03:21:23.812Z,62.9
2017-04-24T03:21:49.384Z,62.9
2017-04-24T03:22:14.999Z,62.9
2017-04-24T03:22:40.567Z,62.61
2017-04-24T03:23:06.131Z,62.81
2017-04-24T03:23:31.733Z,62.81
2017-04-24T03:23:57.452Z,62.9
2017-04-24T03:24:23.015Z,62.99
2017-04-24T03:24:48.568Z,62.81
2017-04-24T03:25:14.228Z,62.9
2017-04-24T03:25:39.850Z,62.71
2017-04-24T03:26:05.390Z,62.71
2017-04-24T03:26:31.060Z,62.71
2017-04-24T03:26:56.614Z,62.9
2017-04-24T03:27:22.165Z,62.81
2017-04-24T03:27:47.751Z,62.71
2017-04-24T03:28:13.321Z,62.71
2017-04-24T03:28:38.882Z,62.99
2017-04-24T03:29:04.431Z,62.99
2017-04-24T03:29:30.021Z,62.81
2017-04-24T03:29:55.549Z,62.71
2017-04-24T03:30:21.122Z,62.81
2017-04-24T03:30:46.754Z,62.71
2017-04-24T03:31:12.312Z,62.99
2017-04-24T03:31:37.864Z,62.9
2017-04-24T03:32:03.436Z,62.9
2017-04-24T03:32:29.007Z,62.9
2017-04-24T03:32:54.562Z,62.71
2017-04-24T03:33:20.130Z,62.61
2017-04-24T03:33:45.707Z,62.61
2017-04-24T03:34:11.330Z,62.81
2017-04-24T03:34:36.883Z,62.71
2017-04-24T03:35:02.439Z,63.09
2017-04-24T03:35:28.011Z,62.99
2017-04-24T03:35:53.591Z,62.99
2017-04-24T03:36:19.151Z,62.99
2017-04-24T03:36:44.697Z,62.9
2017-04-24T03:37:10.241Z,62.9
2017-04-24T03:37:35.792Z,62.81
2017-04-24T03:38:01.336Z,62.71
2017-04-24T03:38:26.920Z,62.71
2017-04-24T03:38:52.513Z,62.81
2017-04-24T03:39:18.055Z,62.9
2017-04-24T03:39:43.611Z,62.81
2017-04-24T03:40:52.233Z,62.71
2017-04-24T03:41:17.793Z,62.61
2017-04-24T03:41:43.429Z,62.9
2017-04-24T03:42:09.018Z,62.71
2017-04-24T03:42:34.593Z,62.9
2017-04-24T03:43:00.240Z,62.71
2017-04-24T03:43:25.837Z,62.71
2017-04-24T03:43:51.396Z,62.9
2017-04-24T03:44:17.046Z,62.71
2017-04-24T03:44:42.586Z,62.9
2017-04-24T03:45:08.131Z,62.99
2017-04-24T03:45:33.663Z,63.09
2017-04-24T03:45:59.197Z,63.09
2017-04-24T03:46:24.803Z,63.19
2017-04-24T03:46:50.341Z,63.19
2017-04-24T03:47:15.909Z,63.19
2017-04-24T03:47:41.418Z,63.19
2017-04-24T03:48:06.953Z,62.99
2017-04-24T03:48:32.488Z,63.19
2017-04-24T03:48:58.051Z,62.99
2017-04-24T03:49:23.612Z,63.09
2017-04-24T03:49:49.154Z,63.19
2017-04-24T03:50:14.752Z,63.19
2017-04-24T03:50:40.279Z,63.19
2017-04-24T03:51:05.832Z,62.9
2017-04-24T03:51:31.407Z,62.99
2017-04-24T03:51:56.953Z,62.99
2017-04-24T03:52:22.493Z,62.9
2017-04-24T03:52:48.039Z,62.81
2017-04-24T03:53:13.579Z,62.9
2017-04-24T03:53:39.151Z,62.99
2017-04-24T03:54:04.717Z,63.09
2017-04-24T03:54:30.277Z,63.09
2017-04-24T03:54:55.837Z,62.9
2017-04-24T03:55:21.400Z,63.09
2017-04-24T03:55:47.021Z,62.81
2017-04-24T03:57:00.752Z,63.09
2017-04-24T03:57:26.299Z,62.71
2017-04-24T03:57:51.943Z,62.81
2017-04-24T03:58:17.493Z,62.9
2017-04-24T03:58:43.055Z,62.9
2017-04-24T03:59:08.625Z,63.38
2017-04-24T03:59:34.233Z,63.48
2017-04-24T03:59:59.915Z,63.48
2017-04-24T04:00:25.522Z,62.9
2017-04-24T04:00:51.272Z,62.71
2017-04-24T04:01:16.841Z,62.81
2017-04-24T04:01:42.387Z,63.48
2017-04-24T04:02:07.946Z,63.38
2017-04-24T04:02:33.491Z,63.38
2017-04-24T04:02:59.052Z,63.57
2017-04-24T04:03:24.611Z,63.57
2017-04-24T04:03:50.183Z,63.09
2017-04-24T04:04:15.746Z,63.09
2017-04-24T04:04:41.298Z,63.48
2017-04-24T04:05:06.868Z,63.19
2017-04-24T04:05:32.470Z,63.19
2017-04-24T04:05:58.086Z,63.19
2017-04-24T04:06:23.658Z,63.38
2017-04-24T04:06:49.300Z,63.38
2017-04-24T04:07:14.859Z,63.28
2017-04-24T04:07:40.438Z,63.19
2017-04-24T04:08:05.983Z,63.09
2017-04-24T04:08:31.537Z,63.19
2017-04-24T04:08:57.075Z,63.19
2017-04-24T04:10:00.601Z,63.19
2017-04-24T04:10:26.190Z,63.28
2017-04-24T04:10:51.720Z,63.19
2017-04-24T04:11:17.283Z,63.38
2017-04-24T04:11:42.833Z,63.28
2017-04-24T04:12:08.514Z,62.9
2017-04-24T04:12:34.072Z,63.38
2017-04-24T04:12:59.642Z,63.19
2017-04-24T04:13:25.218Z,63.19
2017-04-24T04:14:23.342Z,63.28
2017-04-24T04:14:48.898Z,63.38
2017-04-24T04:15:14.442Z,63.48
2017-04-24T04:15:40.004Z,63.19
2017-04-24T04:16:05.554Z,63.28
2017-04-24T04:16:31.117Z,63.28
2017-04-24T04:16:56.644Z,63.09
2017-04-24T04:17:22.186Z,63.28
2017-04-24T04:17:47.729Z,63.19
2017-04-24T04:18:13.302Z,63.19
2017-04-24T04:18:38.847Z,63.19
2017-04-24T04:19:04.438Z,63.19
2017-04-24T04:19:30.004Z,63.19
2017-04-24T04:19:55.572Z,62.99
2017-04-24T04:20:21.123Z,63.09
2017-04-24T04:20:46.664Z,62.99
2017-04-24T04:21:12.252Z,63.19
2017-04-24T04:21:37.801Z,63.28
2017-04-24T04:22:03.376Z,63.28
2017-04-24T04:22:29.017Z,63.19
2017-04-24T04:22:54.622Z,63.09
2017-04-24T04:23:20.236Z,63.19
2017-04-24T04:23:45.704Z,63.19
2017-04-24T04:24:11.252Z,63.19
2017-04-24T04:24:36.816Z,63.19
2017-04-24T04:25:02.392Z,63.38
2017-04-24T04:25:27.979Z,63.38
2017-04-24T04:25:53.540Z,63.38
2017-04-24T04:26:19.109Z,63.38
2017-04-24T04:26:44.681Z,63.38
2017-04-24T04:27:10.270Z,63.28
2017-04-24T04:28:08.375Z,63.28
2017-04-24T04:28:33.938Z,63.19
2017-04-24T04:28:59.638Z,63.38
2017-04-24T04:29:25.217Z,63.38
2017-04-24T04:29:50.770Z,63.28
2017-04-24T04:30:16.393Z,63.48
2017-04-24T04:30:41.991Z,63.48
2017-04-24T04:31:07.529Z,63.57
2017-04-24T04:31:33.088Z,63.67
2017-04-24T04:31:58.631Z,63.38
2017-04-24T04:32:24.164Z,63.48
2017-04-24T04:32:49.740Z,63.48
2017-04-24T04:33:15.284Z,63.19
2017-04-24T04:33:40.862Z,63.48
2017-04-24T04:34:06.415Z,63.48
2017-04-24T04:34:31.981Z,63.38
2017-04-24T04:34:57.530Z,63.38
2017-04-24T04:35:23.090Z,63.48
2017-04-24T04:35:48.689Z,63.57
2017-04-24T04:36:14.332Z,63.67
2017-04-24T04:36:39.924Z,63.28
2017-04-24T04:37:48.547Z,64.15
2017-04-24T04:38:14.101Z,63.67
2017-04-24T04:38:39.663Z,63.86
2017-04-24T04:39:05.216Z,63.48
2017-04-24T04:39:30.779Z,63.76
2017-04-24T04:39:56.345Z,63.48
2017-04-24T04:40:21.889Z,63.38
2017-04-24T04:40:47.452Z,63.38
2017-04-24T04:41:13.032Z,63.57
2017-04-24T04:41:38.601Z,63.57
2017-04-24T04:42:04.162Z,63.48
2017-04-24T04:42:29.710Z,63.67
2017-04-24T04:42:55.293Z,63.86
2017-04-24T04:43:20.863Z,63.86
2017-04-24T04:44:34.595Z,63.86
2017-04-24T04:46:41.593Z,64.05
2017-04-24T04:47:15.469Z,64.15
2017-04-24T04:47:41.019Z,64.15
2017-04-24T04:48:06.583Z,63.96
2017-04-24T04:48:32.146Z,63.96
2017-04-24T04:48:57.760Z,64.15
2017-04-24T04:49:23.304Z,63.86
2017-04-24T04:49:48.871Z,64.15
2017-04-24T04:50:14.432Z,63.96
2017-04-24T04:50:39.987Z,64.05
2017-04-24T04:51:05.560Z,64.05
2017-04-24T04:51:31.125Z,64.05
2017-04-24T04:51:56.679Z,63.86
2017-04-24T04:52:22.351Z,64.05
2017-04-24T04:52:47.942Z,64.05
2017-04-24T04:53:13.500Z,63.86
2017-04-24T04:53:39.072Z,63.67
2017-04-24T04:54:04.693Z,63.86
2017-04-24T04:54:30.257Z,63.96
2017-04-24T04:54:55.813Z,63.57
2017-04-24T04:55:21.385Z,63.38
2017-04-24T04:55:46.930Z,64.15
2017-04-24T04:56:12.492Z,63.67
2017-04-24T04:56:38.110Z,63.38
2017-04-24T04:57:03.678Z,63.48
2017-04-24T04:57:29.303Z,63.38
2017-04-24T04:57:54.949Z,63.28
2017-04-24T04:58:20.500Z,63.19
2017-04-24T04:58:46.068Z,63.28
2017-04-24T04:59:49.723Z,63.09
2017-04-24T05:00:15.292Z,62.9
2017-04-24T05:00:40.981Z,62.81
2017-04-24T05:01:06.610Z,62.99
2017-04-24T05:01:32.161Z,62.99
2017-04-24T05:01:57.723Z,63.09
2017-04-24T05:02:23.280Z,62.99
2017-04-24T05:02:48.845Z,62.61
2017-04-24T05:03:14.398Z,62.81
2017-04-24T05:03:39.968Z,62.81
2017-04-24T05:04:05.533Z,62.81
2017-04-24T05:04:31.094Z,62.9
2017-04-24T05:04:56.646Z,62.81
2017-04-24T05:05:22.188Z,62.9
2017-04-24T05:05:47.752Z,62.9
2017-04-24T05:06:13.343Z,62.99
2017-04-24T05:06:38.904Z,62.9
2017-04-24T05:07:04.473Z,62.9
2017-04-24T05:07:30.009Z,62.81
2017-04-24T05:07:55.585Z,62.9
2017-04-24T05:08:21.146Z,62.9
2017-04-24T05:08:46.949Z,62.81
2017-04-24T05:09:12.492Z,62.81
2017-04-24T05:09:38.145Z,62.81
2017-04-24T05:10:03.699Z,62.81
2017-04-24T05:10:29.273Z,62.71
2017-04-24T05:10:54.825Z,62.81
2017-04-24T05:11:20.411Z,62.9
2017-04-24T05:11:45.972Z,62.99
2017-04-24T05:12:11.558Z,62.99
2017-04-24T05:12:37.125Z,62.99
2017-04-24T05:13:02.675Z,62.9
2017-04-24T05:13:28.275Z,62.99
2017-04-24T05:13:53.854Z,62.9
2017-04-24T05:14:19.410Z,62.99
2017-04-24T05:14:45.027Z,63.09
2017-04-24T05:15:10.629Z,62.99
2017-04-24T05:15:36.178Z,62.99
2017-04-24T05:16:01.735Z,62.71
2017-04-24T05:16:27.298Z,62.42
2017-04-24T05:16:52.847Z,62.71
2017-04-24T05:17:18.417Z,62.42
2017-04-24T05:17:43.981Z,62.42
2017-04-24T05:18:09.527Z,62.42
2017-04-24T05:18:35.112Z,62.61
2017-04-24T05:19:00.704Z,62.42
2017-04-24T05:19:26.282Z,62.61
2017-04-24T05:19:51.832Z,62.32
2017-04-24T05:20:17.370Z,62.42
2017-04-24T05:20:42.917Z,62.61
2017-04-24T05:21:08.507Z,62.42
2017-04-24T05:21:34.054Z,62.32
2017-04-24T05:21:59.589Z,62.32
2017-04-24T05:22:25.570Z,62.52
2017-04-24T05:22:51.621Z,62.42
2017-04-24T05:23:17.171Z,62.52
2017-04-24T05:23:42.716Z,62.32
2017-04-24T05:24:08.301Z,62.52
2017-04-24T05:24:33.856Z,62.52
2017-04-24T05:24:59.414Z,62.32
2017-04-24T05:26:02.927Z,62.32
2017-04-24T05:27:16.378Z,62.32
2017-04-24T05:27:41.920Z,62.32
2017-04-24T05:28:07.491Z,62.32
2017-04-24T05:28:33.069Z,62.29
2017-04-24T05:28:58.786Z,62.32
2017-04-24T05:29:24.393Z,62.13
2017-04-24T05:29:49.950Z,62.32
2017-04-24T05:30:15.544Z,62.32
2017-04-24T05:30:41.112Z,62.32
2017-04-24T05:31:06.673Z,62.29
2017-04-24T05:31:32.233Z,62.32
2017-04-24T05:32:25.563Z,62.23
2017-04-24T05:32:51.123Z,62.29
2017-04-24T05:33:16.692Z,62.52
2017-04-24T05:33:42.250Z,62.42
2017-04-24T05:34:07.818Z,62.13
2017-04-24T05:34:33.500Z,62.13
2017-04-24T05:34:59.065Z,62.23
2017-04-24T05:35:24.621Z,62.42
2017-04-24T05:35:50.313Z,62.32
2017-04-24T05:36:15.891Z,62.42
2017-04-24T05:36:41.453Z,62.29
2017-04-24T05:37:07.007Z,62.32
2017-04-24T05:37:32.725Z,62.32
2017-04-24T05:37:58.309Z,62.32
2017-04-24T05:38:23.873Z,62.32
2017-04-24T05:38:49.421Z,62.04
2017-04-24T05:39:15.134Z,62.32
2017-04-24T05:39:40.674Z,62.32
2017-04-24T05:40:06.254Z,62.52
2017-04-24T05:40:31.821Z,62.48
2017-04-24T05:40:57.381Z,62.52
2017-04-24T05:41:22.923Z,62.32
2017-04-24T05:41:48.480Z,62.32
2017-04-24T05:42:14.037Z,62.32
2017-04-24T05:42:39.664Z,62.23
2017-04-24T05:43:05.270Z,62.04
2017-04-24T05:43:30.853Z,62.52
2017-04-24T05:43:56.398Z,62.23
2017-04-24T05:44:22.028Z,62.52
2017-04-24T05:44:47.586Z,62.32
2017-04-24T05:45:13.134Z,62.52
2017-04-24T05:45:38.687Z,62.13
2017-04-24T05:46:04.250Z,62.23
2017-04-24T05:46:29.841Z,62.61
2017-04-24T05:46:55.418Z,62.23
2017-04-24T05:47:20.974Z,62.48
2017-04-24T05:47:46.672Z,62.52
2017-04-24T05:48:12.224Z,62.29
2017-04-24T05:48:37.844Z,62.29
2017-04-24T05:49:03.404Z,62.32
2017-04-24T05:49:28.996Z,62.42
2017-04-24T05:49:54.543Z,62.52
2017-04-24T05:50:20.102Z,62.52
2017-04-24T05:50:45.682Z,62.29
2017-04-24T05:51:11.293Z,62.19
2017-04-24T05:51:36.910Z,62.52
2017-04-24T05:52:02.442Z,62.32
2017-04-24T05:52:28.019Z,62.52
2017-04-24T05:52:53.585Z,62.19
2017-04-24T05:53:19.137Z,62.01
2017-04-24T05:53:44.681Z,62.13
2017-04-24T05:54:10.327Z,62.13
2017-04-24T05:54:35.966Z,62.13
2017-04-24T05:55:01.501Z,62.32
2017-04-24T05:55:27.041Z,62.04
2017-04-24T05:55:52.603Z,62.32
2017-04-24T05:56:18.178Z,62.32
2017-04-24T05:56:43.729Z,62.23
2017-04-24T05:57:09.271Z,62.52
2017-04-24T05:57:34.809Z,62.23
2017-04-24T05:58:00.364Z,62.52
2017-04-24T05:58:25.956Z,62.32
2017-04-24T05:58:51.527Z,62.32
2017-04-24T05:59:17.079Z,62.04
2017-04-24T05:59:42.624Z,62.32
2017-04-24T06:00:08.193Z,62.32
2017-04-24T06:01:01.516Z,62.32
2017-04-24T06:01:27.084Z,62.13
2017-04-24T06:01:52.647Z,62.1
2017-04-24T06:02:18.190Z,62.52
2017-04-24T06:02:44.571Z,62.48
2017-04-24T06:03:10.138Z,62.23
2017-04-24T06:03:35.700Z,62.29
2017-04-24T06:04:01.269Z,62.61
2017-04-24T06:04:26.821Z,62.32
2017-04-24T06:04:52.386Z,62.23
2017-04-24T06:05:17.941Z,62.19
2017-04-24T06:05:43.651Z,62.39
2017-04-24T06:06:09.214Z,62.19
2017-04-24T06:06:34.789Z,62.23
2017-04-24T06:07:00.347Z,62.52
2017-04-24T06:07:26.034Z,62.52
2017-04-24T06:07:51.587Z,62.23
2017-04-24T06:08:17.147Z,62.23
2017-04-24T06:08:42.699Z,62.52
2017-04-24T06:09:08.271Z,62.13
2017-04-24T06:09:33.848Z,62.29
2017-04-24T06:09:59.392Z,62.13
2017-04-24T06:10:24.972Z,62.04
2017-04-24T06:10:50.618Z,62.1
2017-04-24T06:11:16.174Z,62.04
2017-04-24T06:11:41.723Z,62.32
2017-04-24T06:12:07.293Z,62.13
2017-04-24T06:12:32.821Z,62.19
2017-04-24T06:12:58.385Z,62.48
2017-04-24T06:13:23.958Z,62.13
2017-04-24T06:13:49.510Z,62.29
2017-04-24T06:14:15.060Z,62.29
2017-04-24T06:14:40.620Z,62.52
2017-04-24T06:15:06.172Z,62.52
2017-04-24T06:15:31.711Z,62.13
2017-04-24T06:15:57.253Z,62.32
2017-04-24T06:16:22.796Z,62.52
2017-04-24T06:16:48.351Z,62.52
2017-04-24T06:17:13.887Z,62.19
2017-04-24T06:17:39.435Z,62.23
2017-04-24T06:18:04.999Z,62.52
2017-04-24T06:18:30.527Z,62.29
2017-04-24T06:18:56.092Z,62.32
2017-04-24T06:19:21.638Z,62.29
2017-04-24T06:19:47.186Z,62.29
2017-04-24T06:20:12.837Z,62.04
2017-04-24T06:20:38.423Z,62.04
2017-04-24T06:21:03.982Z,62.42
2017-04-24T06:21:29.632Z,62.32
2017-04-24T06:21:55.171Z,62.1
2017-04-24T06:22:20.710Z,62.04
2017-04-24T06:22:46.311Z,62.01
2017-04-24T06:23:11.873Z,62.23
2017-04-24T06:23:37.423Z,62.32
2017-04-24T06:24:02.986Z,62.39
2017-04-24T06:24:28.522Z,62.13
2017-04-24T06:24:54.081Z,62.48
2017-04-24T06:25:19.635Z,62.29
2017-04-24T06:25:45.196Z,62.32
2017-04-24T06:26:10.778Z,62.29
2017-04-24T06:26:36.360Z,62.32
2017-04-24T06:27:01.922Z,62.32
2017-04-24T06:27:27.640Z,62.32
2017-04-24T06:27:53.202Z,62.29
2017-04-24T06:28:18.771Z,62.23
2017-04-24T06:28:44.442Z,62.61
2017-04-24T06:29:10.005Z,62.32
2017-04-24T06:29:35.546Z,62.42
2017-04-24T06:30:01.127Z,62.1
2017-04-24T06:30:26.684Z,62.39
2017-04-24T06:30:52.233Z,62.39
2017-04-24T06:31:17.780Z,62.29
2017-04-24T06:31:43.331Z,62.29
2017-04-24T06:32:08.886Z,62.32
2017-04-24T06:32:34.474Z,62.32
2017-04-24T06:33:00.042Z,62.32
2017-04-24T06:33:25.604Z,62.13
2017-04-24T06:33:51.141Z,62.29
2017-04-24T06:34:16.684Z,62.13
2017-04-24T06:34:42.364Z,62.04
2017-04-24T06:35:07.921Z,62.23
2017-04-24T06:35:33.485Z,62.1
2017-04-24T06:35:59.149Z,62.29
2017-04-24T06:36:24.703Z,62.1
2017-04-24T06:36:50.264Z,62.29
2017-04-24T06:37:15.821Z,62.29
2017-04-24T06:37:41.396Z,62.32
2017-04-24T06:38:06.923Z,62.1
2017-04-24T06:38:32.541Z,62.32
2017-04-24T06:38:58.158Z,62.42
2017-04-24T06:39:23.726Z,62.19
2017-04-24T06:39:49.314Z,62.32
2017-04-24T06:40:14.977Z,62.13
2017-04-24T06:40:40.534Z,62.32
2017-04-24T06:41:06.108Z,62.13
2017-04-24T06:41:31.696Z,62.13
2017-04-24T06:41:57.270Z,62.32
2017-04-24T06:42:22.826Z,62.29
2017-04-24T06:42:48.503Z,62.39
2017-04-24T06:43:14.063Z,62.29
2017-04-24T06:43:39.623Z,62.32
2017-04-24T06:44:05.265Z,62.19
2017-04-24T06:44:30.923Z,62.19
2017-04-24T06:44:56.461Z,62.32
2017-04-24T06:45:22.030Z,62.48
2017-04-24T06:45:47.601Z,62.48
2017-04-24T06:46:13.209Z,62.04
2017-04-24T06:46:38.768Z,62.23
2017-04-24T06:47:04.332Z,62.13
2017-04-24T06:47:29.892Z,62.1
2017-04-24T06:47:55.452Z,62.13
2017-04-24T06:48:21.143Z,62.29
2017-04-24T06:48:46.715Z,62.19
2017-04-24T06:49:12.368Z,62.13
2017-04-24T06:49:37.953Z,62.29
2017-04-24T06:50:03.520Z,62.13
2017-04-24T06:50:29.087Z,62.29
2017-04-24T06:50:54.737Z,62.13
2017-04-24T06:51:20.357Z,62.1
2017-04-24T06:51:45.920Z,62.13
2017-04-24T06:52:11.564Z,62.32
2017-04-24T06:52:37.106Z,62.23
2017-04-24T06:53:02.707Z,62.32
2017-04-24T06:53:28.293Z,62.29
2017-04-24T06:53:54.009Z,62.01
2017-04-24T06:54:19.635Z,62.32
2017-04-24T06:54:45.205Z,62.1
2017-04-24T06:55:10.751Z,62.29
2017-04-24T06:55:36.308Z,62.32
2017-04-24T06:56:01.872Z,62.32
2017-04-24T06:56:27.510Z,62.52
2017-04-24T06:56:53.178Z,62.23
2017-04-24T06:57:18.743Z,62.48
2017-04-24T06:57:44.301Z,62.61
2017-04-24T06:58:09.862Z,62.23
2017-04-24T06:58:35.425Z,62.1
2017-04-24T06:59:00.982Z,62.32
2017-04-24T06:59:26.534Z,62.52
2017-04-24T06:59:52.105Z,62.52
2017-04-24T07:00:17.661Z,62.52
2017-04-24T07:00:43.235Z,62.52
2017-04-24T07:01:08.844Z,62.48
2017-04-24T07:01:34.417Z,62.01
2017-04-24T07:01:59.999Z,62.01
2017-04-24T07:02:25.530Z,62.13
2017-04-24T07:02:51.075Z,62.04
2017-04-24T07:03:16.628Z,62.32
2017-04-24T07:03:42.210Z,62.32
2017-04-24T07:04:07.765Z,62.04
2017-04-24T07:04:33.309Z,62.13
2017-04-24T07:04:58.841Z,62.32
2017-04-24T07:05:24.411Z,62.23
2017-04-24T07:05:49.953Z,62.04
2017-04-24T07:06:15.532Z,62.23
2017-04-24T07:06:41.072Z,62.52
2017-04-24T07:07:06.613Z,62.61
2017-04-24T07:07:32.159Z,62.32
2017-04-24T07:07:57.723Z,62.23
2017-04-24T07:08:23.403Z,62.32
2017-04-24T07:08:48.972Z,62.42
2017-04-24T07:09:14.540Z,62.32
2017-04-24T07:09:40.089Z,62.32
2017-04-24T07:10:05.642Z,62.23
2017-04-24T07:10:31.191Z,62.29
2017-04-24T07:10:56.740Z,62.19
2017-04-24T07:11:22.321Z,62.01
2017-04-24T07:11:47.879Z,62.13
2017-04-24T07:12:13.444Z,62.23
2017-04-24T07:12:39.022Z,62.32
2017-04-24T07:13:04.614Z,62.32
2017-04-24T07:13:30.160Z,62.13
2017-04-24T07:13:55.717Z,62.61
2017-04-24T07:14:21.279Z,62.32
2017-04-24T07:14:46.918Z,62.48
2017-04-24T07:15:12.450Z,62.42
2017-04-24T07:15:38.010Z,62.39
2017-04-24T07:16:03.541Z,62.48
2017-04-24T07:16:29.081Z,62.29
2017-04-24T07:16:54.655Z,62.32
2017-04-24T07:17:53.245Z,62.32
2017-04-24T07:18:18.803Z,62.48
2017-04-24T07:18:44.363Z,62.42
2017-04-24T07:19:09.938Z,62.32
2017-04-24T07:19:35.493Z,62.39
2017-04-24T07:20:01.044Z,62.32
2017-04-24T07:20:26.592Z,62.42
2017-04-24T07:20:52.143Z,62.42
2017-04-24T07:21:17.813Z,62.52
2017-04-24T07:22:10.793Z,62.19
2017-04-24T07:22:36.325Z,62.23
2017-04-24T07:23:01.881Z,62.23
2017-04-24T07:23:27.540Z,62.23
2017-04-24T07:23:53.085Z,62.52
2017-04-24T07:24:18.641Z,62.61
2017-04-24T07:24:44.332Z,62.48
2017-04-24T07:25:10.041Z,62.29
2017-04-24T07:25:35.595Z,62.48
2017-04-24T07:26:01.156Z,62.48
2017-04-24T07:26:26.710Z,62.52
2017-04-24T07:26:52.265Z,62.52
2017-04-24T07:27:17.885Z,62.61
2017-04-24T07:27:43.457Z,62.52
2017-04-24T07:28:09.106Z,62.52
2017-04-24T07:28:34.681Z,62.42
2017-04-24T07:29:00.232Z,62.39
2017-04-24T07:29:25.793Z,62.52
2017-04-24T07:29:51.384Z,62.48
2017-04-24T07:30:16.943Z,62.48
2017-04-24T07:30:42.493Z,62.42
2017-04-24T07:31:08.048Z,62.52
2017-04-24T07:31:33.595Z,62.42
2017-04-24T07:31:59.154Z,62.42
2017-04-24T07:32:24.712Z,62.52
2017-04-24T07:32:50.271Z,62.52
2017-04-24T07:33:15.833Z,62.52
2017-04-24T07:33:41.403Z,62.48
2017-04-24T07:34:07.006Z,62.48
2017-04-24T07:34:32.543Z,62.48
2017-04-24T07:34:58.143Z,62.52
2017-04-24T07:35:23.692Z,62.48
2017-04-24T07:35:49.254Z,62.42
2017-04-24T07:36:14.889Z,62.42
2017-04-24T07:36:40.442Z,62.42
2017-04-24T07:37:06.055Z,62.42
2017-04-24T07:37:31.703Z,62.32
2017-04-24T07:37:57.251Z,62.32
2017-04-24T07:38:22.809Z,62.42
2017-04-24T07:38:48.380Z,62.52
2017-04-24T07:39:13.952Z,62.42
2017-04-24T07:39:39.518Z,62.32
2017-04-24T07:40:05.099Z,62.42
2017-04-24T07:40:30.647Z,62.52
2017-04-24T07:40:56.249Z,62.42
2017-04-24T07:41:21.807Z,62.42
2017-04-24T07:41:47.368Z,62.42
2017-04-24T07:42:12.915Z,62.42
2017-04-24T07:42:38.580Z,62.52
2017-04-24T07:43:04.155Z,62.58
2017-04-24T07:43:29.736Z,62.42
2017-04-24T07:43:55.382Z,62.52
2017-04-24T07:44:20.945Z,62.29
2017-04-24T07:44:46.535Z,62.52
2017-04-24T07:45:12.097Z,62.48
2017-04-24T07:45:37.645Z,62.42
2017-04-24T07:46:03.186Z,62.42
2017-04-24T07:46:28.791Z,62.58
2017-04-24T07:46:54.351Z,62.39
2017-04-24T07:47:19.909Z,62.42
2017-04-24T07:47:45.562Z,62.61
2017-04-24T07:48:11.129Z,62.52
2017-04-24T07:48:36.664Z,62.42
2017-04-24T07:49:02.240Z,62.42
2017-04-24T07:49:27.818Z,62.39
2017-04-24T07:49:53.385Z,62.42
2017-04-24T07:50:18.971Z,62.32
2017-04-24T07:50:44.539Z,62.32
2017-04-24T07:51:10.103Z,62.23
2017-04-24T07:51:35.683Z,62.61
2017-04-24T07:52:01.362Z,62.42
2017-04-24T07:52:26.897Z,62.42
2017-04-24T07:53:35.552Z,62.48
2017-04-24T07:54:01.105Z,62.61
2017-04-24T07:54:26.681Z,62.39
2017-04-24T07:54:52.243Z,62.42
2017-04-24T07:55:17.803Z,62.42
2017-04-24T07:55:43.362Z,62.48
2017-04-24T07:56:08.909Z,62.42
2017-04-24T07:56:34.623Z,62.52
2017-04-24T07:57:00.197Z,62.39
2017-04-24T07:57:25.752Z,62.52
2017-04-24T07:57:51.299Z,62.39
2017-04-24T07:58:16.852Z,62.48
2017-04-24T07:58:42.532Z,62.52
2017-04-24T07:59:08.085Z,62.39
2017-04-24T07:59:33.712Z,62.42
2017-04-24T07:59:59.296Z,62.39
2017-04-24T08:00:24.852Z,62.39
2017-04-24T08:00:50.426Z,62.42
2017-04-24T08:01:16.090Z,62.61
2017-04-24T08:01:41.652Z,62.42
2017-04-24T08:02:07.312Z,62.71
2017-04-24T08:02:32.909Z,62.32
2017-04-24T08:02:58.465Z,62.32
2017-04-24T08:03:24.021Z,62.23
2017-04-24T08:03:49.598Z,62.29
2017-04-24T08:04:15.155Z,62.68
2017-04-24T08:04:40.710Z,62.39
2017-04-24T08:05:06.286Z,62.39
2017-04-24T08:05:31.811Z,62.13
2017-04-24T08:05:57.473Z,62.29
2017-04-24T08:06:23.078Z,62.32
2017-04-24T08:06:48.649Z,62.42
2017-04-24T08:07:14.188Z,62.29
2017-04-24T08:07:39.898Z,62.68
2017-04-24T08:08:38.304Z,62.32
2017-04-24T08:09:03.862Z,62.32
2017-04-24T08:09:29.434Z,62.58
2017-04-24T08:09:55.003Z,62.42
2017-04-24T08:10:20.557Z,62.39
2017-04-24T08:10:46.124Z,62.42
2017-04-24T08:11:11.676Z,62.29
2017-04-24T08:11:37.235Z,62.39
2017-04-24T08:12:02.982Z,62.61
2017-04-24T08:12:28.553Z,62.42
2017-04-24T08:12:54.112Z,62.29
2017-04-24T08:13:19.685Z,62.48
2017-04-24T08:13:45.285Z,62.42
2017-04-24T08:14:10.846Z,62.32
2017-04-24T08:14:36.419Z,62.39
2017-04-24T08:15:01.997Z,62.42
2017-04-24T08:15:27.547Z,62.29
2017-04-24T08:15:53.090Z,62.42
2017-04-24T08:16:18.655Z,62.32
2017-04-24T08:16:44.280Z,62.42
2017-04-24T08:17:09.919Z,62.32
2017-04-24T08:17:35.484Z,62.32
2017-04-24T08:18:01.023Z,62.48
2017-04-24T08:18:26.587Z,62.61
2017-04-24T08:18:52.135Z,62.39
2017-04-24T08:19:17.704Z,62.23
2017-04-24T08:19:43.285Z,62.42
2017-04-24T08:20:08.854Z,62.32
2017-04-24T08:20:34.546Z,62.32
2017-04-24T08:21:00.122Z,62.23
2017-04-24T08:21:25.703Z,62.19
2017-04-24T08:21:51.232Z,62.19
2017-04-24T08:22:16.884Z,62.23
2017-04-24T08:22:42.447Z,62.13
2017-04-24T08:23:08.001Z,62.23
2017-04-24T08:23:33.634Z,62.13
2017-04-24T08:23:59.163Z,62.1
2017-04-24T08:24:24.756Z,62.19
2017-04-24T08:24:50.341Z,62.23
2017-04-24T08:25:15.939Z,62.19
2017-04-24T08:25:41.444Z,62.1
2017-04-24T08:26:06.986Z,62.19
2017-04-24T08:26:32.536Z,62.1
2017-04-24T08:26:58.088Z,62.1
2017-04-24T08:27:23.651Z,62.1
2017-04-24T08:27:49.205Z,62.13
2017-04-24T08:28:14.852Z,62.42
2017-04-24T08:28:40.393Z,62.42
2017-04-24T08:29:05.960Z,62.13
2017-04-24T08:29:31.648Z,62.42
2017-04-24T08:29:57.205Z,62.42
2017-04-24T08:30:22.747Z,62.52
2017-04-24T08:30:48.306Z,62.48
2017-04-24T08:31:13.865Z,62.23
2017-04-24T08:31:39.432Z,62.42
2017-04-24T08:32:05.011Z,62.42
2017-04-24T08:32:30.563Z,62.23
2017-04-24T08:32:56.111Z,62.19
2017-04-24T08:33:21.697Z,62.32
2017-04-24T08:33:47.249Z,62.42
2017-04-24T08:34:40.544Z,62.29
2017-04-24T08:35:06.104Z,62.19
2017-04-24T08:35:31.670Z,62.32
2017-04-24T08:35:57.241Z,62.32
2017-04-24T08:36:22.944Z,62.42
2017-04-24T08:36:48.513Z,62.29
2017-04-24T08:37:14.058Z,62.32
2017-04-24T08:37:39.607Z,62.32
2017-04-24T08:38:05.168Z,62.52
2017-04-24T08:38:30.753Z,62.29
2017-04-24T08:38:56.310Z,62.23
2017-04-24T08:39:21.841Z,62.19
2017-04-24T08:39:47.391Z,62.29
2017-04-24T08:40:12.964Z,62.23
2017-04-24T08:40:38.519Z,62.42
2017-04-24T08:41:04.112Z,62.29
2017-04-24T08:41:29.667Z,62.23
2017-04-24T08:41:55.230Z,62.32
2017-04-24T08:42:20.839Z,62.23
2017-04-24T08:42:46.495Z,62.29
2017-04-24T08:43:12.040Z,62.39